Time;durP1;ratioP1;P1;durP2;ratioP2;P2;SDS_P1;SDS_P2;PMS_P1;PMS_P2;Temp;Humidity;BMP_temperature;BMP_pressure;BME280_temperature;BME280_humidity;BME280_pressure;Samples;Min_cycle;Max_cycle;Signal;HPM_P1;HPM_P2
2021/09/09 00:00:22;;;;;;;10.55;8.57;;;;;;;23.00;52.99;101220.84;4919956;29;20130;-78
2021/09/09 00:02:48;;;;;;;10.63;9.25;;;;;;;22.98;52.67;101212.97;4949559;29;20035;-77
2021/09/09 00:05:14;;;;;;;9.32;8.43;;;;;;;23.01;52.87;101222.56;4932669;28;20037;-78
2021/09/09 00:07:39;;;;;;;9.80;8.80;;;;;;;23.00;53.21;101223.47;4966966;28;20019;-78
2021/09/09 00:10:05;;;;;;;8.90;8.00;;;;;;;23.00;52.98;101223.47;4950984;28;20026;-78
2021/09/09 00:12:31;;;;;;;10.70;8.50;;;;;;;23.00;53.04;101215.59;4951235;28;20034;-78
2021/09/09 00:14:56;;;;;;;9.43;8.43;;;;;;;22.99;53.12;101205.94;4951052;28;20514;-78
2021/09/09 00:17:21;;;;;;;9.98;9.00;;;;;;;22.97;53.07;101200.75;4934862;28;20030;-78
2021/09/09 00:19:47;;;;;;;10.45;8.93;;;;;;;22.98;53.31;101201.63;4950168;29;20438;-78
2021/09/09 00:22:12;;;;;;;9.48;8.57;;;;;;;22.98;52.84;101188.50;4935438;28;20031;-78
2021/09/09 00:24:38;;;;;;;10.10;9.00;;;;;;;22.96;52.94;101188.53;4931172;29;20370;-78
2021/09/09 00:27:03;;;;;;;9.73;8.75;;;;;;;22.96;53.07;101193.78;4930955;29;20098;-78
2021/09/09 00:29:32;;;;;;;11.30;8.55;;;;;;;22.97;52.86;101186.75;4933915;29;20039;-78
2021/09/09 00:31:58;;;;;;;9.95;8.95;;;;;;;22.97;53.16;101186.75;4951455;28;20152;-78
2021/09/09 00:34:24;;;;;;;9.90;8.90;;;;;;;22.96;53.06;101174.56;4958226;29;20035;-78
2021/09/09 00:36:49;;;;;;;11.00;9.10;;;;;;;22.95;53.22;101178.94;4936898;28;20035;-78
2021/09/09 00:39:15;;;;;;;11.48;9.20;;;;;;;22.94;53.08;101171.97;4952872;28;20046;-78
2021/09/09 00:41:40;;;;;;;11.50;9.15;;;;;;;22.94;52.96;101171.97;4953413;28;20089;-78
2021/09/09 00:44:22;;;;;;;10.93;9.32;;;;;;;22.94;52.92;101171.09;4952399;28;20045;-78
2021/09/09 00:47:03;;;;;;;9.07;8.18;;;;;;;22.95;52.96;101178.06;4958937;29;20035;-78
2021/09/09 00:49:30;;;;;;;10.30;8.85;;;;;;;22.94;52.97;101177.22;4965738;28;20026;-78
2021/09/09 00:51:56;;;;;;;10.10;8.80;;;;;;;22.96;53.02;101182.44;4950922;28;20485;-78
2021/09/09 00:54:22;;;;;;;10.13;8.85;;;;;;;22.95;53.40;101175.44;4954903;28;20062;-77
2021/09/09 00:56:49;;;;;;;10.10;9.00;;;;;;;22.93;53.33;101174.63;4973037;28;20026;-78
2021/09/09 00:59:15;;;;;;;9.25;8.32;;;;;;;22.93;52.95;101172.00;4971119;28;20026;-77
2021/09/09 01:01:41;;;;;;;10.25;8.82;;;;;;;22.92;53.08;101167.66;4960128;28;20026;-77
2021/09/09 01:04:07;;;;;;;10.80;8.77;;;;;;;22.91;52.94;101161.56;4932730;29;20046;-77
2021/09/09 01:06:32;;;;;;;9.57;8.57;;;;;;;22.92;52.90;101162.41;4932833;28;20405;-78
2021/09/09 01:08:58;;;;;;;10.05;8.82;;;;;;;22.91;52.82;101158.94;4939278;29;20027;-77
2021/09/09 01:11:24;;;;;;;9.50;8.50;;;;;;;22.92;53.04;101159.78;4943125;28;20035;-77
2021/09/09 01:13:51;;;;;;;9.88;8.88;;;;;;;22.91;53.19;101153.69;4958870;28;20089;-78
2021/09/09 01:16:16;;;;;;;9.73;8.73;;;;;;;22.93;53.18;101157.13;4956774;28;20098;-79
2021/09/09 01:18:41;;;;;;;9.70;8.70;;;;;;;22.92;53.30;101155.38;4941898;28;20034;-78
2021/09/09 01:21:07;;;;;;;9.23;8.23;;;;;;;22.91;53.61;101153.69;4953904;29;20441;-78
2021/09/09 01:23:34;;;;;;;9.25;8.35;;;;;;;22.91;53.34;101158.94;4943287;29;20502;-77
2021/09/09 01:25:59;;;;;;;9.90;8.93;;;;;;;22.90;53.31;101149.31;4963211;29;20390;-79
2021/09/09 01:28:24;;;;;;;10.95;8.90;;;;;;;22.89;53.11;101147.63;4934215;28;20129;-79
2021/09/09 01:30:50;;;;;;;9.73;8.77;;;;;;;22.91;53.09;101147.59;4976847;28;20481;-79
2021/09/09 01:33:15;;;;;;;10.75;9.60;;;;;;;22.89;53.08;101137.13;4948646;28;20031;-79
2021/09/09 01:35:41;;;;;;;11.90;8.77;;;;;;;22.88;53.16;101135.38;4948728;28;20042;-79
2021/09/09 01:38:18;;;;;;;10.02;9.02;;;;;;;22.89;53.08;101131.88;4963155;28;20059;-79
2021/09/09 01:40:44;;;;;;;10.07;8.90;;;;;;;22.87;53.24;101132.81;4960378;28;20023;-79
2021/09/09 01:43:09;;;;;;;10.13;9.13;;;;;;;22.89;52.82;101131.00;4929131;28;20509;-79
2021/09/09 01:45:35;;;;;;;10.82;8.98;;;;;;;22.88;52.83;101127.50;4933092;29;20041;-79
2021/09/09 01:48:00;;;;;;;9.60;8.70;;;;;;;22.87;53.12;101117.06;4920775;28;20045;-79
2021/09/09 01:50:26;;;;;;;11.00;8.77;;;;;;;22.87;53.20;101127.56;4944710;28;20019;-78
2021/09/09 01:52:51;;;;;;;10.73;9.50;;;;;;;22.87;53.16;101130.19;4930156;28;20038;-79
2021/09/09 01:55:17;;;;;;;10.10;9.05;;;;;;;22.87;53.22;101132.81;4958017;28;20035;-79
2021/09/09 01:57:42;;;;;;;10.77;9.25;;;;;;;22.87;52.96;101122.31;4961788;28;20524;-79
2021/09/09 02:00:08;;;;;;;10.70;9.35;;;;;;;22.85;53.03;101124.97;4960370;28;20054;-79
2021/09/09 02:02:34;;;;;;;10.35;9.25;;;;;;;22.86;52.84;101131.94;4942658;29;20035;-79
2021/09/09 02:04:59;;;;;;;10.10;9.10;;;;;;;22.86;53.04;101123.22;4927880;29;20041;-79
2021/09/09 02:07:25;;;;;;;11.02;9.13;;;;;;;22.84;52.99;101120.63;4910653;29;20035;-79
2021/09/09 02:09:50;;;;;;;10.25;9.00;;;;;;;22.84;52.35;101117.13;4941993;29;20090;-79
2021/09/09 02:12:15;;;;;;;9.80;8.88;;;;;;;22.84;53.04;101123.25;4931428;29;20058;-79
2021/09/09 02:14:41;;;;;;;9.80;8.90;;;;;;;22.85;52.72;101129.38;4944359;28;20034;-79
2021/09/09 02:17:07;;;;;;;12.10;8.60;;;;;;;22.85;53.10;101124.13;4944038;28;20113;-80
2021/09/09 02:19:35;;;;;;;9.85;8.73;;;;;;;22.85;52.72;101132.84;4960567;28;20027;-79
2021/09/09 02:22:01;;;;;;;10.77;8.93;;;;;;;22.83;52.86;101133.81;4977786;28;20041;-79
2021/09/09 02:24:26;;;;;;;11.10;9.70;;;;;;;22.84;53.17;101125.00;4978454;28;20023;-79
2021/09/09 02:26:51;;;;;;;12.38;8.95;;;;;;;22.85;52.68;101137.25;4945403;28;20058;-79
2021/09/09 02:29:17;;;;;;;10.38;9.25;;;;;;;22.84;52.80;101135.50;4960808;28;20042;-78
2021/09/09 02:31:42;;;;;;;10.35;9.18;;;;;;;22.83;52.80;101134.66;4927080;28;20442;-78
2021/09/09 02:34:07;;;;;;;9.95;8.95;;;;;;;22.85;52.59;101135.47;4928362;29;20028;-79
2021/09/09 02:36:33;;;;;;;9.50;8.50;;;;;;;22.86;52.96;101136.31;4945761;29;20118;-79
2021/09/09 02:38:59;;;;;;;11.70;9.10;;;;;;;22.85;52.81;101132.00;4945916;29;20032;-79
2021/09/09 02:41:24;;;;;;;11.25;9.10;;;;;;;22.84;52.92;101131.09;4928597;29;20047;-79
2021/09/09 02:43:50;;;;;;;10.98;9.65;;;;;;;22.83;52.69;101134.66;4915283;29;20471;-79
2021/09/09 02:46:15;;;;;;;15.35;9.10;;;;;;;22.84;53.08;101122.38;4930914;29;20027;-79
2021/09/09 02:48:41;;;;;;;11.65;8.57;;;;;;;22.82;53.19;101127.69;4946405;29;20039;-79
2021/09/09 02:51:06;;;;;;;10.48;8.93;;;;;;;22.82;52.76;101121.56;4931403;29;20027;-79
2021/09/09 02:53:32;;;;;;;10.43;9.43;;;;;;;22.83;52.84;101120.69;4931472;29;20054;-79
2021/09/09 02:55:57;;;;;;;10.35;8.95;;;;;;;22.82;52.54;101118.94;4947270;29;20035;-79
2021/09/09 02:58:22;;;;;;;8.73;7.85;;;;;;;22.79;52.78;101110.25;4915741;29;20125;-78
2021/09/09 03:00:48;;;;;;;10.18;9.13;;;;;;;22.79;52.75;101115.50;4931614;29;20031;-77
2021/09/09 03:03:13;;;;;;;10.30;9.27;;;;;;;22.79;52.76;101112.88;4931454;29;20390;-78
2021/09/09 03:05:39;;;;;;;9.80;8.82;;;;;;;22.79;52.59;101101.53;4930994;29;20038;-77
2021/09/09 03:08:04;;;;;;;10.30;9.20;;;;;;;22.79;52.85;101102.38;4930250;29;20030;-77
2021/09/09 03:10:30;;;;;;;11.57;9.63;;;;;;;22.78;52.56;101100.66;4964669;28;20035;-78
2021/09/09 03:12:55;;;;;;;10.77;9.25;;;;;;;22.78;52.66;101097.19;4935685;28;20042;-77
2021/09/09 03:15:21;;;;;;;10.07;8.93;;;;;;;22.76;52.38;101094.59;4935346;28;20485;-77
2021/09/09 03:17:46;;;;;;;11.25;9.50;;;;;;;22.76;52.57;101084.09;4931162;29;20027;-79
2021/09/09 03:20:12;;;;;;;13.48;9.57;;;;;;;22.77;52.40;101085.81;4947783;29;20055;-77
2021/09/09 03:22:40;;;;;;;10.63;9.52;;;;;;;22.78;52.55;101086.69;4915787;29;20033;-78
2021/09/09 03:25:06;;;;;;;10.40;9.30;;;;;;;22.77;52.29;101083.19;4948562;29;20490;-77
2021/09/09 03:27:32;;;;;;;10.40;9.30;;;;;;;22.77;52.20;101084.97;4932911;29;20039;-77
2021/09/09 03:29:57;;;;;;;10.57;9.48;;;;;;;22.76;52.46;101078.84;4938891;28;20035;-78
2021/09/09 03:32:23;;;;;;;10.50;9.40;;;;;;;22.76;52.47;101078.84;4966151;28;20086;-78
2021/09/09 03:34:48;;;;;;;10.80;9.45;;;;;;;22.76;52.35;101086.72;4950047;28;20054;-77
2021/09/09 03:37:13;;;;;;;11.77;9.68;;;;;;;22.75;52.38;101078.91;4950290;28;20023;-78
2021/09/09 03:39:41;;;;;;;10.85;9.20;;;;;;;22.75;52.35;101079.75;4930050;29;20035;-78
2021/09/09 03:42:06;;;;;;;12.18;10.05;;;;;;;22.76;52.08;101084.09;4929840;29;20062;-78
2021/09/09 03:44:32;;;;;;;10.55;9.45;;;;;;;22.74;52.47;101080.66;4940950;28;20481;-78
2021/09/09 03:46:57;;;;;;;10.93;9.20;;;;;;;22.75;52.27;101078.91;4933273;28;20030;-78
2021/09/09 03:49:23;;;;;;;10.73;9.30;;;;;;;22.75;52.47;101079.75;4931992;28;20489;-78
2021/09/09 03:51:49;;;;;;;10.05;9.05;;;;;;;22.74;52.24;101075.41;4918442;29;20086;-78
2021/09/09 03:54:14;;;;;;;10.23;9.15;;;;;;;22.74;52.39;101078.03;4944349;29;20417;-78
2021/09/09 03:56:39;;;;;;;10.10;9.10;;;;;;;22.74;52.42;101078.03;4928424;29;20051;-78
2021/09/09 03:59:05;;;;;;;10.27;9.27;;;;;;;22.74;52.13;101077.19;4927633;29;20516;-78
2021/09/09 04:01:30;;;;;;;10.75;9.60;;;;;;;22.73;52.46;101071.09;4913390;29;20513;-78
2021/09/09 04:03:55;;;;;;;10.18;9.02;;;;;;;22.74;52.27;101080.66;4934437;28;20027;-78
2021/09/09 04:06:22;;;;;;;13.90;9.60;;;;;;;22.74;52.36;101072.78;4929137;29;20035;-78
2021/09/09 04:08:47;;;;;;;12.93;9.02;;;;;;;22.74;52.27;101078.03;4929137;28;20031;-78
2021/09/09 04:11:13;;;;;;;11.85;9.77;;;;;;;22.73;52.37;101075.44;4930739;28;20038;-77
2021/09/09 04:13:38;;;;;;;10.63;9.52;;;;;;;22.73;52.60;101071.09;4949569;29;20027;-78
2021/09/09 04:16:04;;;;;;;10.57;9.48;;;;;;;22.73;52.29;101071.09;4945080;29;20086;-78
2021/09/09 04:18:29;;;;;;;10.20;9.20;;;;;;;22.73;52.47;101068.47;4944922;29;20019;-78
2021/09/09 04:20:55;;;;;;;10.50;9.40;;;;;;;22.72;52.48;101069.34;4961590;29;20540;-78
2021/09/09 04:23:20;;;;;;;10.13;9.13;;;;;;;22.72;52.19;101061.47;4939409;28;20034;-77
2021/09/09 04:25:45;;;;;;;10.32;9.23;;;;;;;22.73;52.62;101055.34;4964962;28;20473;-77
2021/09/09 04:28:11;;;;;;;9.60;8.65;;;;;;;22.71;52.39;101049.28;4947923;28;20038;-76
2021/09/09 04:30:36;;;;;;;10.30;9.27;;;;;;;22.71;52.08;101046.66;4962658;28;20027;-77
2021/09/09 04:33:02;;;;;;;10.40;9.40;;;;;;;22.71;52.25;101040.53;4931099;28;20033;-77
2021/09/09 04:35:27;;;;;;;15.43;10.07;;;;;;;22.73;52.23;101039.59;4946887;28;20034;-77
2021/09/09 04:37:53;;;;;;;11.23;9.98;;;;;;;22.74;51.84;101041.31;4945684;28;20023;-76
2021/09/09 04:40:18;;;;;;;10.70;9.60;;;;;;;22.74;51.79;101040.47;4961460;28;20026;-77
2021/09/09 04:42:46;;;;;;;11.00;9.90;;;;;;;22.75;52.04;101043.00;4945163;28;20054;-77
2021/09/09 04:45:12;;;;;;;11.35;10.15;;;;;;;22.74;51.98;101050.94;4959396;28;20062;-77
2021/09/09 04:47:37;;;;;;;10.70;9.60;;;;;;;22.74;52.06;101038.69;4959356;28;20026;-77
2021/09/09 04:50:05;;;;;;;10.98;9.88;;;;;;;22.75;51.98;101039.53;4927516;28;20027;-77
2021/09/09 04:52:30;;;;;;;10.38;9.25;;;;;;;22.75;51.71;101048.25;4959062;28;20117;-77
2021/09/09 04:54:56;;;;;;;11.25;10.05;;;;;;;22.75;52.04;101042.16;4940019;28;20062;-77
2021/09/09 04:57:21;;;;;;;12.80;10.10;;;;;;;22.75;51.97;101036.91;4923058;29;20504;-77
2021/09/09 04:59:46;;;;;;;13.20;9.68;;;;;;;22.73;52.11;101042.22;4955471;29;20031;-77
2021/09/09 05:02:12;;;;;;;10.88;9.32;;;;;;;22.73;52.11;101044.84;4940277;29;20181;-77
2021/09/09 05:04:38;;;;;;;9.88;8.93;;;;;;;22.69;52.17;101034.47;4959909;28;20147;-78
2021/09/09 05:07:04;;;;;;;11.93;10.20;;;;;;;22.67;52.25;101029.28;4948671;29;20066;-77
2021/09/09 05:09:30;;;;;;;11.68;9.57;;;;;;;22.64;52.15;101033.75;4929202;28;20034;-78
2021/09/09 05:11:57;;;;;;;11.10;9.65;;;;;;;22.61;52.17;101033.84;4952421;29;20039;-77
2021/09/09 05:14:25;;;;;;;11.45;9.82;;;;;;;22.65;52.37;101035.47;4927951;29;20037;-79
2021/09/09 05:16:50;;;;;;;17.23;11.95;;;;;;;22.62;52.46;101038.16;4949860;29;20035;-78
2021/09/09 05:19:16;;;;;;;18.40;11.88;;;;;;;22.59;52.51;101033.88;4956589;28;20035;-77
2021/09/09 05:21:41;;;;;;;18.88;12.00;;;;;;;22.65;52.13;101040.72;4980584;28;20038;-77
2021/09/09 05:24:07;;;;;;;16.08;11.57;;;;;;;22.61;52.40;101028.59;4946629;28;20035;-77
2021/09/09 05:26:32;;;;;;;19.00;12.85;;;;;;;22.50;52.35;101029.72;4963126;28;20023;-76
2021/09/09 05:28:57;;;;;;;17.00;14.23;;;;;;;22.44;51.58;101021.16;4979635;28;20018;-77
2021/09/09 05:31:24;;;;;;;18.63;14.82;;;;;;;22.37;51.68;101025.72;4947577;28;20033;-77
2021/09/09 05:33:49;;;;;;;18.10;14.55;;;;;;;22.33;51.25;101026.69;4932428;28;20030;-77
2021/09/09 05:36:16;;;;;;;19.33;16.05;;;;;;;22.30;51.38;101021.56;4963761;28;20034;-77
2021/09/09 05:38:41;;;;;;;17.38;14.63;;;;;;;22.27;51.13;101027.72;4947221;28;20477;-77
2021/09/09 05:41:07;;;;;;;19.80;14.77;;;;;;;22.26;51.18;101025.16;4978729;28;20046;-77
2021/09/09 05:43:32;;;;;;;23.25;15.38;;;;;;;22.24;51.10;101022.56;4960993;28;20038;-76
2021/09/09 05:45:57;;;;;;;20.35;15.35;;;;;;;22.22;51.12;101018.22;4944266;28;20031;-76
2021/09/09 05:48:23;;;;;;;24.23;16.35;;;;;;;22.19;51.02;101021.78;4944420;28;20034;-77
2021/09/09 05:50:48;;;;;;;20.00;15.35;;;;;;;22.17;50.64;101023.59;4945158;28;20366;-77
2021/09/09 05:53:13;;;;;;;20.27;15.63;;;;;;;22.17;50.91;101016.59;4947307;28;20366;-77
2021/09/09 05:55:39;;;;;;;23.63;16.63;;;;;;;22.15;50.82;101012.28;4947324;28;20065;-77
2021/09/09 05:58:05;;;;;;;18.83;15.98;;;;;;;22.17;50.60;101015.72;4946955;28;20042;-77
2021/09/09 06:00:31;;;;;;;22.10;15.57;;;;;;;22.23;50.86;101018.19;4947997;28;20043;-77
2021/09/09 06:03:00;;;;;;;16.13;13.73;;;;;;;22.30;50.78;101013.69;4931652;28;20033;-77
2021/09/09 06:05:27;;;;;;;17.65;13.95;;;;;;;22.35;51.00;101014.41;4931167;28;20042;-79
2021/09/09 06:07:53;;;;;;;17.33;14.00;;;;;;;22.39;50.79;101016.06;4978765;28;20026;-78
2021/09/09 06:10:18;;;;;;;16.98;13.85;;;;;;;22.40;51.18;101015.13;4962857;28;20354;-79
2021/09/09 06:12:43;;;;;;;21.33;14.95;;;;;;;22.39;50.51;101010.81;4965353;28;20027;-79
2021/09/09 06:15:10;;;;;;;21.98;15.38;;;;;;;22.45;50.06;101009.75;4951172;28;20066;-80
2021/09/09 06:17:53;;;;;;;23.63;16.02;;;;;;;22.47;50.19;101006.22;4966075;28;20046;-79
2021/09/09 06:20:19;;;;;;;20.27;14.70;;;;;;;22.52;50.46;101003.47;4968898;28;20162;-79
2021/09/09 06:22:45;;;;;;;22.67;15.63;;;;;;;22.56;49.96;101013.84;4987148;28;20031;-80
2021/09/09 06:25:11;;;;;;;21.92;15.23;;;;;;;22.58;49.99;101019.91;4953855;28;20043;-79
2021/09/09 06:27:36;;;;;;;21.83;15.65;;;;;;;22.61;49.76;101012.84;4983776;28;20038;-79
2021/09/09 06:30:02;;;;;;;18.27;14.45;;;;;;;22.60;49.93;101009.34;4965436;28;20026;-79
2021/09/09 06:32:28;;;;;;;21.55;15.07;;;;;;;22.62;49.69;101018.03;4967653;28;20102;-82
2021/09/09 06:34:53;;;;;;;21.95;14.50;;;;;;;22.64;49.84;101016.22;4954583;28;20093;-80
2021/09/09 06:37:19;;;;;;;21.67;14.63;;;;;;;22.64;49.79;101012.75;4966745;28;20091;-81
2021/09/09 06:39:44;;;;;;;18.73;14.00;;;;;;;22.65;49.62;101017.97;4936341;28;20452;-81
2021/09/09 06:42:10;;;;;;;18.08;14.18;;;;;;;22.66;50.15;101010.94;4934789;28;20055;-78
2021/09/09 06:44:35;;;;;;;18.08;13.70;;;;;;;22.67;49.57;101008.28;4950272;28;20540;-82
2021/09/09 06:47:01;;;;;;;17.30;14.38;;;;;;;22.68;49.63;101009.16;4966172;28;20066;-80
2021/09/09 06:49:26;;;;;;;18.75;14.05;;;;;;;22.70;49.92;101007.34;4951028;28;20027;-81
2021/09/09 06:51:52;;;;;;;17.23;13.77;;;;;;;22.70;49.82;100997.69;4952425;28;20085;-80
2021/09/09 06:54:17;;;;;;;17.60;13.85;;;;;;;22.71;49.78;101001.19;4976043;28;20042;-81
2021/09/09 06:59:18;;;;;;;18.20;13.90;;;;;;;22.73;49.98;101008.13;5250806;23;20085;-80
2021/09/09 07:02:05;;;;;;;19.63;15.27;;;;;;;22.65;50.45;100999.59;4940597;29;20044;-82
2021/09/09 07:10:20;;;;;;;21.33;19.02;;;;;;;22.15;51.20;101000.03;5252843;23;20051;-83
2021/09/09 07:12:53;;;;;;;23.60;19.38;;;;;;;22.10;51.40;100998.41;4995713;28;20014;-81
2021/09/09 07:15:19;;;;;;;27.38;20.88;;;;;;;22.11;51.36;100998.41;4979634;28;20015;-79
2021/09/09 07:17:46;;;;;;;28.15;20.95;;;;;;;22.07;51.67;100994.13;4995261;28;20027;-82
2021/09/09 07:20:47;;;;;;;23.00;19.77;;;;;;;22.10;51.39;101008.91;4993557;28;20062;-81
2021/09/09 07:23:40;;;;;;;28.30;19.20;;;;;;;22.14;51.58;101015.78;4983652;28;20006;-81
2021/09/09 07:26:30;;;;;;;21.83;19.45;;;;;;;22.16;51.25;101006.13;5000326;28;20007;-81
2021/09/09 07:29:36;;;;;;;23.05;18.50;;;;;;;22.18;51.30;101007.81;4960272;29;20032;-81
2021/09/09 07:32:35;;;;;;;28.23;18.00;;;;;;;22.21;50.78;101006.00;4961305;29;20031;-81
2021/09/09 07:35:57;;;;;;;21.75;17.42;;;;;;;22.17;50.82;101015.72;4921671;29;20060;-81
2021/09/09 07:38:45;;;;;;;23.25;17.77;;;;;;;22.21;50.59;101043.59;4919219;29;20041;-81
2021/09/09 07:42:15;;;;;;;20.73;16.50;;;;;;;22.32;50.50;101041.56;4919286;29;20041;-82
2021/09/09 07:44:49;;;;;;;21.02;16.15;;;;;;;22.38;50.08;101019.56;4835542;29;20045;-81
2021/09/09 07:47:20;;;;;;;21.10;15.73;;;;;;;22.39;50.13;101034.41;4883284;29;20109;-81
2021/09/09 07:50:28;;;;;;;20.05;16.25;;;;;;;22.50;50.02;101034.13;4884600;29;20102;-81
2021/09/09 07:53:55;;;;;;;17.95;14.30;;;;;;;22.56;49.38;101026.09;4904979;29;20028;-82
2021/09/09 07:57:05;;;;;;;18.40;14.50;;;;;;;22.58;49.55;101021.63;4873860;29;20089;-82
2021/09/09 08:00:10;;;;;;;22.45;14.00;;;;;;;22.58;49.27;101026.88;4911325;29;20028;-82
2021/09/09 08:03:15;;;;;;;17.27;14.50;;;;;;;22.58;49.04;101019.91;4923288;29;20045;-82
2021/09/09 08:06:25;;;;;;;19.30;14.50;;;;;;;22.63;48.99;101021.53;4867038;29;20018;-82
2021/09/09 08:09:42;;;;;;;19.67;14.30;;;;;;;22.64;48.81;101013.59;4852736;29;20058;-82
2021/09/09 08:16:11;;;;;;;18.30;16.02;;;;;;;22.55;48.67;101012.09;4818085;29;20100;-82
2021/09/09 08:18:42;;;;;;;18.40;16.02;;;;;;;22.60;49.04;101014.59;4816173;29;20042;-81
2021/09/09 08:21:14;;;;;;;20.13;15.80;;;;;;;22.62;48.76;101014.56;4854622;29;20155;-81
2021/09/09 08:24:37;;;;;;;20.42;16.67;;;;;;;22.58;48.98;101009.41;4864743;29;20038;-82
2021/09/09 08:27:34;;;;;;;20.55;15.80;;;;;;;22.63;48.82;101026.78;4827738;29;20038;-82
2021/09/09 08:30:09;;;;;;;20.40;16.45;;;;;;;22.64;49.02;101034.59;4869446;29;20037;-81
2021/09/09 08:36:27;;;;;;;17.20;13.75;;;;;;;22.79;48.69;101035.94;4855362;29;20052;-81
2021/09/09 08:39:00;;;;;;;16.95;14.20;;;;;;;22.80;48.64;101035.03;4883852;29;20097;-82
2021/09/09 08:41:44;;;;;;;17.63;12.77;;;;;;;22.86;48.89;101041.88;4883558;29;20045;-81
2021/09/09 08:44:32;;;;;;;16.90;13.73;;;;;;;22.89;48.65;101041.78;4901716;29;20145;-81
2021/09/09 08:52:33;;;;;;;15.75;13.63;;;;;;;22.93;48.53;101025.03;4909397;29;20136;-82
2021/09/09 08:55:01;;;;;;;17.52;14.60;;;;;;;22.94;48.96;101030.25;4913517;29;20044;-82
2021/09/09 08:57:34;;;;;;;17.25;14.88;;;;;;;22.95;48.48;101029.34;4938486;29;20061;-82
2021/09/09 09:04:01;;;;;;;17.70;15.07;;;;;;;22.97;48.81;101048.53;4954880;29;20050;-81
2021/09/09 09:06:32;;;;;;;15.77;13.30;;;;;;;23.03;49.14;101060.66;4958386;29;20537;-81
2021/09/09 09:09:09;;;;;;;18.95;15.55;;;;;;;23.02;48.89;101061.56;4942048;29;20016;-81
2021/09/09 09:11:54;;;;;;;20.63;16.67;;;;;;;22.98;49.02;101047.63;4964014;29;20047;-81
2021/09/09 09:14:25;;;;;;;16.63;14.35;;;;;;;22.98;49.32;101044.16;4977700;29;20488;-81
2021/09/09 09:17:11;;;;;;;17.27;14.10;;;;;;;23.04;49.09;101054.50;4936947;29;20072;-81
2021/09/09 09:19:41;;;;;;;17.88;14.30;;;;;;;23.06;48.90;101050.06;4922017;29;20100;-82
2021/09/09 09:22:10;;;;;;;19.52;13.77;;;;;;;23.07;49.22;101049.16;4921990;29;20068;-82
2021/09/09 09:25:06;;;;;;;17.48;15.35;;;;;;;23.09;49.06;101057.00;4936661;29;20036;-82
2021/09/09 09:27:49;;;;;;;18.25;14.27;;;;;;;23.07;49.47;101048.31;4939377;29;20028;-82
2021/09/09 09:30:37;;;;;;;15.10;13.18;;;;;;;23.09;49.45;101051.75;4935142;29;20109;-81
2021/09/09 09:33:36;;;;;;;19.55;13.60;;;;;;;23.10;49.53;101042.94;4925101;29;20028;-82
2021/09/09 09:36:48;;;;;;;14.27;12.77;;;;;;;23.07;49.34;101049.16;4938190;29;20043;-82
2021/09/09 09:39:33;;;;;;;15.68;12.80;;;;;;;23.11;49.38;101052.56;4894640;29;20017;-82
2021/09/09 09:42:01;;;;;;;17.58;13.68;;;;;;;23.12;49.65;101056.88;4915491;29;20024;-82
2021/09/09 09:45:08;;;;;;;20.85;12.77;;;;;;;23.14;49.17;101058.56;4916332;29;20061;-82
2021/09/09 09:51:06;;;;;;;16.52;13.23;;;;;;;23.12;49.20;101057.75;4862532;29;20041;-81
2021/09/09 09:54:13;;;;;;;16.85;13.38;;;;;;;23.11;49.77;101055.19;4848892;29;20094;-82
2021/09/09 09:56:58;;;;;;;14.95;12.88;;;;;;;23.14;49.77;101049.84;4862572;29;20042;-82
2021/09/09 09:59:55;;;;;;;14.95;12.48;;;;;;;23.12;49.90;101049.00;4862463;29;20026;-82
2021/09/09 10:02:38;;;;;;;14.15;11.20;;;;;;;23.15;49.99;101048.94;4825517;29;20062;-81
2021/09/09 10:05:11;;;;;;;16.70;12.60;;;;;;;23.15;50.35;101046.31;4809939;29;20038;-82
2021/09/09 10:08:11;;;;;;;13.27;11.50;;;;;;;23.12;50.06;101044.63;4847132;29;20038;-82
2021/09/09 10:11:05;;;;;;;12.65;11.30;;;;;;;23.14;49.97;101042.81;4860942;29;20065;-82
2021/09/09 10:14:18;;;;;;;15.27;11.80;;;;;;;23.15;50.00;101039.28;4789121;30;20035;-82
2021/09/09 10:16:53;;;;;;;15.63;10.82;;;;;;;23.15;49.90;101031.41;4787343;30;20066;-82
2021/09/09 10:19:34;;;;;;;16.55;12.30;;;;;;;23.16;49.89;101029.66;4787195;30;20036;-82
2021/09/09 10:22:21;;;;;;;12.88;10.13;;;;;;;23.17;50.13;101032.25;4786892;30;20043;-82
2021/09/09 10:25:02;;;;;;;14.23;10.43;;;;;;;23.16;50.05;101025.25;4784905;30;20027;-82
2021/09/09 10:27:43;;;;;;;11.13;10.00;;;;;;;23.17;50.02;101024.34;4801505;29;20046;-81
2021/09/09 10:30:17;;;;;;;13.35;11.95;;;;;;;23.18;50.38;101017.34;4840422;29;20050;-82
2021/09/09 10:33:45;;;;;;;;;;;;;;;;;;;;;
2021/09/09 10:37:22;;;;;;;11.82;10.00;;;;;;;23.19;50.43;101021.66;4839855;29;20066;-82
2021/09/09 10:40:10;;;;;;;;;;;;;;;;;;;;;
2021/09/09 10:49:33;;;;;;;;;;;;;;;;;;;;;
2021/09/09 10:52:14;;;;;;;14.00;10.57;;;;;;;23.32;49.98;101024.78;4831665;29;20069;-82
2021/09/09 10:55:02;;;;;;;12.77;11.10;;;;;;;23.36;50.00;101018.53;4859057;29;20037;-81
2021/09/09 11:01:11;;;;;;;15.90;11.05;;;;;;;23.39;50.14;101024.56;4850958;29;20055;-81
2021/09/09 11:03:47;;;;;;;16.15;12.10;;;;;;;23.43;50.50;101014.84;4856708;29;20038;-81
2021/09/09 11:06:31;;;;;;;14.80;12.25;;;;;;;23.45;50.18;101009.50;4840792;29;20050;-81
2021/09/09 11:08:58;;;;;;;16.52;12.77;;;;;;;23.44;50.70;101016.53;4854595;29;20029;-81
2021/09/09 11:11:47;;;;;;;13.95;12.40;;;;;;;23.46;50.69;101014.72;4855133;29;20077;-81
2021/09/09 11:14:16;;;;;;;18.48;13.48;;;;;;;23.49;50.77;101019.00;4841787;29;20038;-81
2021/09/09 11:16:42;;;;;;;17.08;12.65;;;;;;;23.46;50.94;101014.72;4855823;29;20512;-80
2021/09/09 11:21:42;;;;;;;18.65;13.95;;;;;;;23.60;51.69;101011.66;5289875;23;20063;-79
2021/09/09 11:24:10;;;;;;;18.17;14.40;;;;;;;23.59;51.65;101010.78;4953633;28;20165;-79
2021/09/09 11:26:37;;;;;;;19.75;14.65;;;;;;;23.61;52.31;101010.75;4968016;28;20026;-80
2021/09/09 11:29:04;;;;;;;23.63;15.38;;;;;;;23.68;52.58;101021.94;4984490;28;20027;-81
2021/09/09 11:31:42;;;;;;;20.48;14.50;;;;;;;23.72;53.53;101020.91;4950879;28;20043;-80
2021/09/09 11:34:08;;;;;;;23.92;14.30;;;;;;;23.72;53.74;101020.91;4970713;28;20090;-80
2021/09/09 11:36:38;;;;;;;20.52;14.43;;;;;;;23.71;53.99;101027.06;4940937;28;20462;-81
2021/09/09 11:39:07;;;;;;;24.10;14.65;;;;;;;23.66;54.16;101035.09;4956653;28;20062;-81
2021/09/09 11:41:34;;;;;;;20.90;13.90;;;;;;;23.68;54.46;101033.28;4968376;28;20038;-80
2021/09/09 11:44:05;;;;;;;21.42;13.27;;;;;;;23.68;54.49;101041.16;4992768;28;20037;-82
2021/09/09 11:46:51;;;;;;;25.60;12.70;;;;;;;23.67;54.43;101043.84;4974928;28;20033;-83
2021/09/09 11:49:27;;;;;;;21.90;13.25;;;;;;;23.68;54.65;101050.81;4959577;28;20023;-83
2021/09/09 11:51:58;;;;;;;28.52;13.02;;;;;;;23.68;54.47;101053.44;4975488;28;20050;-81
2021/09/09 11:54:31;;;;;;;20.17;12.80;;;;;;;23.67;54.73;101056.97;4973965;28;20085;-80
2021/09/09 11:57:05;;;;;;;;;;;;;;;23.66;54.81;101050.88;4958909;28;20026;-80
2021/09/09 11:59:31;;;;;;;19.63;12.35;;;;;;;23.65;54.81;101050.91;4976205;28;19914;-82
2021/09/09 12:02:08;;;;;;;20.52;13.43;;;;;;;23.68;54.87;101056.09;4975517;28;20038;-81
2021/09/09 12:04:39;;;;;;;21.85;11.95;;;;;;;23.60;54.49;101054.56;4974153;28;20466;-81
2021/09/09 12:07:17;;;;;;;21.30;12.70;;;;;;;23.61;54.97;101051.00;4975686;28;20030;-81
2021/09/09 12:10:00;;;;;;;24.10;12.70;;;;;;;23.64;54.71;101059.72;4975912;28;20509;-81
2021/09/09 12:12:29;;;;;;;21.80;13.45;;;;;;;23.65;54.46;101054.41;4957544;28;20039;-81
2021/09/09 12:15:09;;;;;;;23.77;12.88;;;;;;;23.62;54.27;101055.34;4988226;28;20042;-82
2021/09/09 12:17:37;;;;;;;20.45;12.88;;;;;;;23.63;54.72;101058.84;4971701;28;20023;-82
2021/09/09 12:20:08;;;;;;;24.30;13.88;;;;;;;23.64;54.47;101063.19;4987726;28;20039;-81
2021/09/09 12:23:02;;;;;;;18.38;13.10;;;;;;;23.62;54.64;101067.63;4995318;28;20027;-80
2021/09/09 12:25:27;;;;;;;;;;;;;;;23.61;54.06;101074.66;4975614;28;20056;-80